Time;durP1;ratioP1;P1;durP2;ratioP2;P2;SDS_P1;SDS_P2;PMS_P1;PMS_P2;Temp;Humidity;BMP_temperature;BMP_pressure;BME280_temperature;BME280_humidity;BME280_pressure;Samples;Min_cycle;Max_cycle;Signal;HPM_P1;HPM_P2
2022/05/10 00:01:35;;;;;;;12.85;5.75;;;15.10;99.90;;;;;;5133157;27;20192;-63
2022/05/10 00:04:03;;;;;;;14.05;5.78;;;15.00;99.90;;;;;;5126622;28;20054;-62
2022/05/10 00:06:33;;;;;;;14.57;6.13;;;15.00;99.90;;;;;;5112402;28;20050;-62
2022/05/10 00:08:59;;;;;;;13.40;5.85;;;15.00;99.90;;;;;;5143943;27;20582;-62
2022/05/10 00:11:26;;;;;;;14.77;6.20;;;14.90;99.90;;;;;;5119190;27;20139;-62
2022/05/10 00:13:51;;;;;;;12.30;5.75;;;14.80;99.90;;;;;;5130234;27;20035;-62
2022/05/10 00:16:18;;;;;;;12.40;5.63;;;14.80;99.90;;;;;;5146740;27;20046;-62
2022/05/10 00:18:45;;;;;;;9.23;5.60;;;14.70;99.90;;;;;;5129775;27;20051;-62
2022/05/10 00:21:14;;;;;;;12.18;5.68;;;14.60;99.90;;;;;;5120392;27;20062;-62
2022/05/10 00:23:39;;;;;;;11.13;5.60;;;14.60;99.90;;;;;;5145602;27;20454;-62
2022/05/10 00:26:05;;;;;;;14.70;6.25;;;14.50;99.90;;;;;;5130365;27;20073;-62
2022/05/10 00:28:31;;;;;;;11.15;5.90;;;14.50;99.90;;;;;;5131368;27;20513;-62
2022/05/10 00:30:57;;;;;;;14.98;5.88;;;14.50;99.90;;;;;;5131050;27;20056;-63
2022/05/10 00:33:26;;;;;;;13.32;5.93;;;14.50;99.90;;;;;;5142505;27;20058;-63
2022/05/10 00:35:52;;;;;;;11.85;5.88;;;14.40;99.90;;;;;;5102276;27;20046;-62
2022/05/10 00:38:21;;;;;;;12.10;5.60;;;14.40;99.90;;;;;;5155658;27;20050;-62
2022/05/10 00:40:47;;;;;;;13.93;5.45;;;14.40;99.90;;;;;;5135158;27;20096;-63
2022/05/10 00:43:27;;;;;;;11.10;5.88;;;14.40;99.90;;;;;;5163068;27;20055;-63
2022/05/10 00:45:58;;;;;;;12.32;5.85;;;14.50;99.90;;;;;;5134016;27;20083;-63
2022/05/10 00:48:48;;;;;;;9.35;5.32;;;14.50;99.90;;;;;;5152323;27;20121;-62
2022/05/10 00:51:33;;;;;;;11.45;5.40;;;14.40;99.90;;;;;;5133907;27;20486;-61
2022/05/10 00:54:02;;;;;;;;;;;14.40;99.90;;;;;;5154358;27;20554;-65
2022/05/10 00:56:42;;;;;;;19.00;6.00;;;14.40;99.90;;;;;;5154988;27;20426;-63
2022/05/10 00:59:43;;;;;;;12.98;5.28;;;14.40;99.90;;;;;;5151254;27;20492;-62
2022/05/10 01:02:36;;;;;;;10.75;5.15;;;14.40;99.90;;;;;;5125302;27;20223;-62
2022/05/10 01:05:49;;;;;;;9.15;5.30;;;14.40;99.90;;;;;;5138425;27;20043;-62
2022/05/10 01:08:22;;;;;;;12.15;5.53;;;14.40;99.90;;;;;;5136476;27;20452;-62
2022/05/10 01:11:03;;;;;;;11.57;5.45;;;14.40;99.90;;;;;;5153540;27;20046;-66
2022/05/10 01:13:55;;;;;;;12.02;5.88;;;14.40;99.90;;;;;;5144272;27;20122;-61
2022/05/10 01:16:23;;;;;;;12.25;5.30;;;14.40;99.90;;;;;;5098539;27;20061;-62
2022/05/10 01:18:50;;;;;;;9.38;5.07;;;14.40;99.90;;;;;;5133503;27;20054;-65
2022/05/10 01:21:37;;;;;;;13.68;5.82;;;14.40;99.90;;;;;;5123231;27;20061;-62
2022/05/10 01:24:24;;;;;;;12.30;6.15;;;14.50;99.90;;;;;;5136658;27;20499;-62
2022/05/10 01:27:17;;;;;;;11.27;4.88;;;14.50;99.90;;;;;;5133929;27;20086;-66
2022/05/10 01:29:49;;;;;;;11.07;5.22;;;14.50;99.90;;;;;;5140584;27;20049;-62
2022/05/10 01:35:10;;;;;;;8.85;4.53;;;14.50;99.90;;;;;;5135047;27;20055;-61
2022/05/10 01:37:40;;;;;;;14.63;5.25;;;14.50;99.90;;;;;;5154309;27;20078;-61
2022/05/10 01:40:32;;;;;;;11.45;4.97;;;14.50;99.90;;;;;;5133856;27;20039;-62
2022/05/10 01:43:20;;;;;;;12.05;4.97;;;14.60;99.90;;;;;;5104399;27;20044;-62
2022/05/10 01:45:49;;;;;;;9.57;4.38;;;14.60;99.90;;;;;;5128390;27;20042;-62
2022/05/10 01:48:18;;;;;;;11.77;5.03;;;14.60;99.90;;;;;;5152723;27;20622;-62
2022/05/10 01:50:54;;;;;;;10.55;4.72;;;14.60;99.90;;;;;;5145186;27;20082;-62
2022/05/10 01:53:25;;;;;;;11.60;4.78;;;14.60;99.90;;;;;;5147713;27;20549;-62
2022/05/10 01:56:03;;;;;;;11.55;4.72;;;14.70;99.90;;;;;;5163924;27;20050;-61
2022/05/10 01:58:33;;;;;;;10.02;4.70;;;14.70;99.90;;;;;;5114938;27;20059;-61
2022/05/10 02:01:03;;;;;;;10.65;5.07;;;14.70;99.90;;;;;;5138707;27;20147;-62
2022/05/10 02:03:55;;;;;;;16.00;5.00;;;14.70;99.90;;;;;;5114993;27;20047;-62
2022/05/10 02:06:43;;;;;;;11.52;5.57;;;14.80;99.90;;;;;;5114646;27;20105;-63
2022/05/10 02:09:35;;;;;;;10.48;5.47;;;14.80;99.90;;;;;;5111673;27;20145;-62
2022/05/10 02:12:44;;;;;;;15.70;5.57;;;14.80;99.90;;;;;;5112012;28;20792;-62
2022/05/10 02:15:10;;;;;;;10.93;5.40;;;14.90;99.90;;;;;;5131380;27;20078;-61
2022/05/10 02:17:48;;;;;;;14.48;6.30;;;14.90;99.90;;;;;;5114590;27;20506;-62
2022/05/10 02:20:22;;;;;;;10.68;5.65;;;15.00;99.90;;;;;;5119896;27;20052;-61
2022/05/10 02:23:04;;;;;;;11.93;5.60;;;15.00;99.90;;;;;;5110759;28;20046;-62
2022/05/10 02:25:35;;;;;;;11.38;5.60;;;15.10;99.90;;;;;;5126693;27;20108;-62
2022/05/10 02:28:12;;;;;;;8.77;5.68;;;15.10;99.90;;;;;;5131046;27;20051;-67
2022/05/10 02:30:38;;;;;;;12.75;5.78;;;15.10;99.90;;;;;;5114169;27;20087;-62
2022/05/10 02:33:11;;;;;;;11.68;5.30;;;15.10;99.90;;;;;;5111151;28;20150;-63
2022/05/10 02:35:43;;;;;;;10.95;5.32;;;15.10;99.90;;;;;;5108262;28;20047;-62
2022/05/10 02:38:12;;;;;;;11.15;5.38;;;15.00;99.90;;;;;;5153303;27;20051;-61
2022/05/10 02:40:41;;;;;;;12.73;5.43;;;15.10;99.90;;;;;;5123167;27;20446;-63
2022/05/10 02:43:22;;;;;;;8.88;4.57;;;15.00;99.90;;;;;;5109263;27;20090;-62
2022/05/10 02:45:48;;;;;;;9.65;5.47;;;15.00;99.90;;;;;;5110994;27;20047;-62
2022/05/10 02:48:19;;;;;;;9.55;4.72;;;14.90;99.90;;;;;;5129547;27;20600;-62
2022/05/10 02:50:45;;;;;;;11.23;5.13;;;14.90;99.90;;;;;;5135077;27;20142;-61
2022/05/10 02:53:10;;;;;;;12.52;5.03;;;14.90;99.90;;;;;;5113645;27;20044;-62
2022/05/10 02:55:53;;;;;;;12.57;5.57;;;14.90;99.90;;;;;;5135883;27;20054;-61
2022/05/10 02:58:26;;;;;;;13.57;5.70;;;14.80;99.90;;;;;;5160483;27;20551;-62
2022/05/10 03:00:58;;;;;;;11.82;5.38;;;14.80;99.90;;;;;;5132120;27;20035;-62
2022/05/10 03:03:26;;;;;;;11.80;5.63;;;14.80;99.90;;;;;;5097381;27;20047;-62
2022/05/10 03:05:53;;;;;;;12.63;6.05;;;14.70;99.90;;;;;;5152362;27;20368;-62
2022/05/10 03:08:20;;;;;;;9.85;5.70;;;14.70;99.90;;;;;;5134454;27;20039;-63
2022/05/10 03:10:45;;;;;;;12.07;6.30;;;14.70;99.90;;;;;;5132636;27;20089;-61
2022/05/10 03:13:11;;;;;;;9.80;5.03;;;14.70;99.90;;;;;;5147009;27;20082;-62
2022/05/10 03:15:37;;;;;;;11.30;5.70;;;14.60;99.90;;;;;;5146323;27;20058;-62
2022/05/10 03:18:03;;;;;;;10.02;5.07;;;14.60;99.90;;;;;;5168429;27;20097;-61
2022/05/10 03:20:28;;;;;;;14.40;6.00;;;14.60;99.90;;;;;;5135924;27;20063;-62
2022/05/10 03:22:54;;;;;;;9.43;5.10;;;14.60;99.90;;;;;;5112802;27;20051;-61
2022/05/10 03:25:21;;;;;;;11.68;5.93;;;14.60;99.90;;;;;;5147989;27;20043;-61
2022/05/10 03:27:47;;;;;;;10.60;5.93;;;14.60;99.90;;;;;;5154491;27;20433;-61
2022/05/10 03:30:13;;;;;;;11.98;5.88;;;14.60;99.90;;;;;;5151191;27;20129;-62
2022/05/10 03:32:39;;;;;;;10.88;5.97;;;14.60;99.90;;;;;;5148906;27;20088;-62
2022/05/10 03:35:05;;;;;;;12.48;6.53;;;14.60;99.90;;;;;;5112572;27;20484;-61
2022/05/10 03:37:31;;;;;;;13.18;6.50;;;14.60;99.90;;;;;;5149115;27;20062;-62
2022/05/10 03:39:57;;;;;;;9.65;5.90;;;14.60;99.90;;;;;;5158062;27;20444;-61
2022/05/10 03:42:23;;;;;;;14.00;6.30;;;14.60;99.90;;;;;;5130605;27;20677;-61
2022/05/10 03:44:53;;;;;;;13.25;6.35;;;14.60;99.90;;;;;;5120562;27;20058;-61
2022/05/10 03:47:21;;;;;;;17.00;6.22;;;14.60;99.90;;;;;;5126241;27;20061;-63
2022/05/10 03:49:47;;;;;;;14.80;6.43;;;14.70;99.90;;;;;;5138829;27;20468;-62
2022/05/10 03:52:14;;;;;;;13.80;7.07;;;14.60;99.90;;;;;;5142203;27;20483;-62
2022/05/10 03:54:40;;;;;;;14.45;6.22;;;14.70;99.90;;;;;;5150455;27;20042;-62
2022/05/10 03:57:06;;;;;;;15.50;6.22;;;14.70;99.90;;;;;;5146843;27;20043;-61
2022/05/10 03:59:32;;;;;;;12.52;6.22;;;14.70;99.90;;;;;;5134741;27;20586;-61
2022/05/10 04:01:58;;;;;;;10.15;6.07;;;14.80;99.90;;;;;;5149324;27;20122;-62
2022/05/10 04:04:24;;;;;;;11.30;6.28;;;14.70;99.90;;;;;;5131946;27;20376;-63
2022/05/10 04:06:50;;;;;;;12.00;6.43;;;14.70;99.90;;;;;;5157901;27;20059;-62
2022/05/10 04:09:16;;;;;;;12.32;6.07;;;14.70;99.90;;;;;;5131819;27;20050;-65
2022/05/10 04:11:44;;;;;;;14.65;7.18;;;14.80;99.90;;;;;;5134864;27;20419;-62
2022/05/10 04:14:09;;;;;;;11.67;6.63;;;14.80;99.90;;;;;;5140309;27;20495;-62
2022/05/10 04:16:35;;;;;;;9.00;5.72;;;14.80;99.90;;;;;;5140131;27;20284;-63
2022/05/10 04:19:01;;;;;;;13.07;6.45;;;14.80;99.90;;;;;;5116327;27;20050;-61
2022/05/10 04:21:27;;;;;;;15.80;6.80;;;14.90;99.90;;;;;;5127413;27;20042;-62
2022/05/10 04:23:53;;;;;;;13.00;6.95;;;14.80;99.90;;;;;;5149396;27;20170;-60
2022/05/10 04:26:19;;;;;;;12.18;6.90;;;14.90;99.90;;;;;;5162201;27;20537;-62
2022/05/10 04:28:45;;;;;;;12.13;6.82;;;14.80;99.90;;;;;;5166846;27;20357;-62
2022/05/10 04:31:11;;;;;;;14.80;8.40;;;14.90;99.90;;;;;;5118673;27;20034;-61
2022/05/10 04:33:38;;;;;;;12.73;6.68;;;14.90;99.90;;;;;;5142918;27;20523;-61
2022/05/10 04:36:04;;;;;;;16.00;7.55;;;14.90;99.90;;;;;;5137074;27;20536;-61
2022/05/10 04:38:30;;;;;;;15.40;7.32;;;14.90;99.90;;;;;;5166111;27;20130;-62
2022/05/10 04:43:40;;;;;;;15.30;7.65;;;14.90;99.90;;;;;;5147830;27;20051;-62
2022/05/10 04:46:06;;;;;;;16.08;7.35;;;15.00;99.90;;;;;;5144716;27;20491;-62
2022/05/10 04:48:33;;;;;;;12.90;6.75;;;15.00;99.90;;;;;;5134089;27;20053;-62
2022/05/10 04:51:00;;;;;;;12.98;6.63;;;15.00;99.90;;;;;;5134213;27;20047;-62
2022/05/10 04:53:25;;;;;;;12.38;6.65;;;15.00;99.90;;;;;;5131144;27;20133;-63
2022/05/10 04:55:52;;;;;;;13.00;6.78;;;15.10;99.90;;;;;;5106434;27;20131;-63
2022/05/10 04:58:17;;;;;;;11.48;7.38;;;15.10;99.90;;;;;;5093079;28;20400;-62
2022/05/10 05:00:43;;;;;;;13.10;7.53;;;15.20;99.90;;;;;;5108274;27;20044;-60
2022/05/10 05:03:09;;;;;;;10.95;6.85;;;15.10;99.90;;;;;;5101671;28;20050;-61
2022/05/10 05:05:35;;;;;;;13.57;6.72;;;15.10;99.90;;;;;;5111154;27;20397;-62
2022/05/10 05:08:00;;;;;;;11.45;6.93;;;15.20;99.90;;;;;;5112519;27;20055;-62
2022/05/10 05:10:26;;;;;;;13.90;7.22;;;15.20;99.90;;;;;;5091521;28;20052;-61
2022/05/10 05:12:52;;;;;;;12.77;6.97;;;15.20;99.90;;;;;;5098603;28;20164;-62
2022/05/10 05:15:18;;;;;;;19.33;8.30;;;15.30;99.90;;;;;;5103649;27;20032;-61
2022/05/10 05:17:44;;;;;;;18.45;7.68;;;15.30;99.90;;;;;;5092284;28;20086;-63
2022/05/10 05:20:10;;;;;;;15.43;7.05;;;15.30;99.90;;;;;;5110801;27;20055;-61
2022/05/10 05:22:37;;;;;;;16.30;7.15;;;15.40;99.90;;;;;;5091278;28;20449;-62
2022/05/10 05:25:04;;;;;;;14.43;7.03;;;15.40;99.90;;;;;;5107517;27;20365;-62
2022/05/10 05:27:30;;;;;;;14.00;7.15;;;15.50;99.90;;;;;;5114205;27;20118;-61
2022/05/10 05:29:56;;;;;;;13.23;7.03;;;15.60;99.90;;;;;;5091278;28;20044;-67
2022/05/10 05:32:28;;;;;;;13.40;7.05;;;15.60;99.90;;;;;;5096817;28;20104;-63
2022/05/10 05:34:56;;;;;;;12.95;7.15;;;15.60;99.90;;;;;;5118150;27;20054;-61
2022/05/10 05:37:34;;;;;;;13.20;7.03;;;15.70;99.90;;;;;;5124608;27;20599;-63
2022/05/10 05:40:07;;;;;;;14.35;7.32;;;15.70;99.90;;;;;;5092478;28;20095;-61
2022/05/10 05:42:33;;;;;;;12.35;7.05;;;15.80;99.90;;;;;;5091689;28;20071;-62
2022/05/10 05:44:59;;;;;;;17.73;7.40;;;15.80;99.90;;;;;;5098628;27;20115;-62
2022/05/10 05:47:25;;;;;;;16.17;7.78;;;15.90;99.90;;;;;;5111656;28;20150;-62
2022/05/10 05:49:51;;;;;;;12.05;6.93;;;15.90;99.90;;;;;;5093783;28;20098;-62
2022/05/10 05:52:20;;;;;;;14.88;6.93;;;16.00;99.90;;;;;;5090775;28;20489;-62
2022/05/10 05:54:46;;;;;;;13.95;6.70;;;16.00;99.90;;;;;;5113432;27;20495;-62
2022/05/10 05:57:12;;;;;;;11.73;6.60;;;16.10;99.90;;;;;;5133258;27;20055;-62
2022/05/10 05:59:38;;;;;;;9.90;5.93;;;16.10;99.90;;;;;;5120904;27;20430;-63
2022/05/10 06:02:13;;;;;;;14.15;7.28;;;16.10;99.90;;;;;;5115095;27;20134;-60
2022/05/10 06:04:39;;;;;;;12.25;6.85;;;16.20;99.90;;;;;;5132091;27;20123;-61
2022/05/10 06:07:05;;;;;;;10.32;6.68;;;16.30;99.90;;;;;;5132718;27;20043;-62
2022/05/10 06:09:31;;;;;;;9.93;6.53;;;16.30;99.90;;;;;;5125885;27;20036;-65
2022/05/10 06:11:56;;;;;;;11.68;7.32;;;16.40;99.90;;;;;;5112334;28;20182;-61
2022/05/10 06:14:22;;;;;;;15.27;7.35;;;16.50;99.90;;;;;;5119316;27;20058;-62
2022/05/10 06:16:48;;;;;;;12.10;6.68;;;16.60;99.90;;;;;;5113555;27;20496;-63
2022/05/10 06:19:14;;;;;;;13.63;6.82;;;16.80;99.90;;;;;;5124777;27;20081;-63
2022/05/10 06:21:41;;;;;;;11.73;7.15;;;17.00;99.90;;;;;;5111432;27;20119;-62
2022/05/10 06:24:08;;;;;;;11.48;6.53;;;17.20;99.90;;;;;;5097057;27;20409;-63
2022/05/10 06:26:34;;;;;;;16.90;6.90;;;17.50;99.90;;;;;;5132288;27;20129;-66
2022/05/10 06:28:59;;;;;;;9.88;6.22;;;18.00;99.90;;;;;;5125298;27;20131;-63
2022/05/10 06:31:25;;;;;;;11.13;6.45;;;18.50;99.60;;;;;;5118677;27;20476;-63
2022/05/10 06:33:51;;;;;;;13.27;6.47;;;19.00;98.90;;;;;;5147196;27;20047;-62
2022/05/10 06:36:16;;;;;;;13.60;6.32;;;19.40;98.10;;;;;;5129641;27;20050;-63
2022/05/10 06:38:43;;;;;;;13.02;6.35;;;19.70;98.20;;;;;;5140590;27;20054;-61
2022/05/10 06:41:08;;;;;;;10.57;6.60;;;20.20;97.20;;;;;;5110398;28;20059;-63
2022/05/10 06:43:35;;;;;;;12.73;6.00;;;20.40;96.40;;;;;;5112476;27;20040;-67
2022/05/10 06:46:09;;;;;;;10.45;6.15;;;20.80;95.90;;;;;;5127948;27;20051;-63
2022/05/10 06:48:35;;;;;;;10.90;5.88;;;21.20;95.40;;;;;;5131655;27;20189;-67
2022/05/10 06:51:05;;;;;;;12.15;5.80;;;21.80;95.20;;;;;;5112012;27;20126;-62
2022/05/10 06:53:31;;;;;;;8.75;5.63;;;22.20;93.30;;;;;;5133946;27;20072;-63
2022/05/10 06:55:57;;;;;;;12.38;5.63;;;22.50;93.10;;;;;;5144000;27;20047;-63
2022/05/10 06:58:23;;;;;;;12.20;5.95;;;22.50;92.50;;;;;;5113574;27;20143;-63
2022/05/10 07:00:49;;;;;;;12.30;6.03;;;22.40;92.40;;;;;;5112992;27;20103;-63
2022/05/10 07:03:17;;;;;;;12.30;5.53;;;22.30;92.10;;;;;;5094180;28;20047;-62
2022/05/10 07:05:44;;;;;;;9.80;5.47;;;22.20;92.40;;;;;;5111281;27;20039;-63
2022/05/10 07:08:11;;;;;;;8.73;5.00;;;22.00;92.80;;;;;;5093009;28;20079;-63
2022/05/10 07:10:36;;;;;;;10.05;5.22;;;21.90;92.50;;;;;;5110045;28;20044;-63
2022/05/10 07:13:02;;;;;;;8.75;4.72;;;21.80;92.80;;;;;;5109817;27;20050;-63
2022/05/10 07:15:28;;;;;;;11.00;5.18;;;21.80;92.70;;;;;;5109634;28;20039;-63
2022/05/10 07:17:54;;;;;;;11.77;5.25;;;21.90;92.60;;;;;;5110446;28;20048;-63
2022/05/10 07:20:20;;;;;;;9.23;4.55;;;21.90;92.30;;;;;;5092759;28;20463;-62
2022/05/10 07:22:47;;;;;;;8.50;5.03;;;21.90;92.60;;;;;;5109149;28;20052;-63
2022/05/10 07:25:16;;;;;;;13.82;5.00;;;21.80;92.50;;;;;;5125266;27;20040;-62
2022/05/10 07:27:42;;;;;;;14.13;4.65;;;21.80;92.30;;;;;;5089869;28;20139;-67
2022/05/10 07:30:09;;;;;;;9.98;4.90;;;21.80;92.20;;;;;;5105428;28;20047;-62
2022/05/10 07:32:35;;;;;;;8.63;4.30;;;21.80;92.30;;;;;;5109312;28;20130;-62
2022/05/10 07:35:03;;;;;;;7.63;4.95;;;22.10;92.40;;;;;;5109188;28;20331;-63
2022/05/10 07:37:30;;;;;;;10.93;5.00;;;22.50;92.00;;;;;;5109622;28;20081;-63
2022/05/10 07:39:56;;;;;;;11.48;5.18;;;22.80;91.90;;;;;;5108501;28;20092;-63
2022/05/10 07:42:22;;;;;;;11.20;4.97;;;23.00;91.70;;;;;;5109171;28;20063;-63
2022/05/10 07:44:51;;;;;;;11.18;5.40;;;23.20;90.80;;;;;;5103357;27;20046;-61
2022/05/10 07:47:17;;;;;;;13.68;5.50;;;23.40;90.80;;;;;;5109284;28;20047;-63
2022/05/10 07:49:43;;;;;;;9.63;5.15;;;23.40;90.50;;;;;;5106620;28;20054;-62
2022/05/10 07:52:09;;;;;;;12.15;5.05;;;23.50;90.90;;;;;;5108903;28;20051;-62
2022/05/10 07:54:36;;;;;;;9.48;4.93;;;23.40;90.50;;;;;;5139804;27;20062;-62
2022/05/10 07:57:03;;;;;;;11.40;5.32;;;23.20;90.50;;;;;;5153146;27;20118;-62
2022/05/10 07:59:31;;;;;;;9.70;4.50;;;23.00;90.50;;;;;;5170943;27;20122;-65
2022/05/10 08:01:57;;;;;;;7.70;4.38;;;22.90;90.90;;;;;;5149619;27;20051;-61
2022/05/10 08:04:23;;;;;;;10.32;4.25;;;22.80;90.90;;;;;;5163431;27;20046;-62
2022/05/10 08:06:50;;;;;;;8.75;3.97;;;22.70;91.00;;;;;;5171601;27;20066;-65
2022/05/10 08:09:15;;;;;;;12.05;4.90;;;22.70;90.80;;;;;;5162236;27;20158;-62
2022/05/10 08:11:43;;;;;;;11.45;4.50;;;22.60;90.70;;;;;;5144677;27;20168;-61
2022/05/10 08:14:09;;;;;;;10.40;4.00;;;22.50;90.40;;;;;;5110793;28;20043;-61
2022/05/10 08:16:35;;;;;;;7.95;3.80;;;22.50;90.60;;;;;;5129829;27;20372;-61
2022/05/10 08:19:01;;;;;;;8.75;4.35;;;22.50;90.90;;;;;;5129866;27;20047;-62
2022/05/10 08:21:27;;;;;;;12.63;4.35;;;22.60;90.90;;;;;;5130743;28;20421;-61
2022/05/10 08:23:55;;;;;;;8.35;3.92;;;22.70;90.70;;;;;;5131996;27;20629;-62
2022/05/10 08:26:22;;;;;;;9.27;3.58;;;22.60;90.80;;;;;;5149826;27;20107;-61
2022/05/10 08:28:48;;;;;;;8.85;3.50;;;22.60;90.20;;;;;;5139264;27;20051;-63
2022/05/10 08:31:14;;;;;;;10.57;4.10;;;22.60;90.40;;;;;;5135216;27;20038;-61
2022/05/10 08:33:42;;;;;;;9.90;3.60;;;22.50;90.20;;;;;;5147384;27;20058;-61
2022/05/10 08:36:08;;;;;;;9.93;3.60;;;22.40;90.30;;;;;;5147296;27;20796;-61
2022/05/10 08:38:34;;;;;;;10.85;3.55;;;22.30;90.30;;;;;;5131617;27;20117;-61
2022/05/10 08:41:25;;;;;;;9.90;3.53;;;22.30;91.00;;;;;;5129618;27;20042;-61
2022/05/10 08:43:57;;;;;;;9.00;3.08;;;22.40;91.20;;;;;;5133411;27;20069;-62
2022/05/10 08:46:36;;;;;;;10.93;3.70;;;22.40;91.20;;;;;;5150838;27;20050;-62
2022/05/10 08:49:22;;;;;;;9.38;3.60;;;22.50;91.00;;;;;;5131006;27;20103;-62
2022/05/10 08:51:48;;;;;;;11.10;3.55;;;22.50;90.80;;;;;;5145727;27;20053;-62
2022/05/10 08:54:14;;;;;;;6.10;3.25;;;22.60;90.60;;;;;;5122415;27;20055;-63
2022/05/10 08:56:46;;;;;;;7.43;3.80;;;22.70;90.90;;;;;;5148747;27;20057;-63
2022/05/10 08:59:56;;;;;;;9.63;3.70;;;22.70;90.40;;;;;;5142113;27;20039;-62
2022/05/10 09:02:42;;;;;;;7.38;3.50;;;22.70;90.40;;;;;;5058648;28;20138;-62
2022/05/10 09:05:22;;;;;;;17.38;3.55;;;22.70;90.40;;;;;;5086652;28;20044;-63
2022/05/10 09:08:06;;;;;;;7.03;3.60;;;22.60;90.50;;;;;;5127614;27;20485;-63
2022/05/10 09:10:45;;;;;;;7.22;3.17;;;22.60;90.60;;;;;;5133982;27;20043;-62
2022/05/10 09:13:15;;;;;;;10.75;3.35;;;22.60;90.40;;;;;;5131650;27;20170;-60
2022/05/10 09:15:56;;;;;;;16.25;3.53;;;22.60;90.50;;;;;;5132967;27;20043;-61
2022/05/10 09:18:55;;;;;;;5.50;2.63;;;22.70;90.60;;;;;;5132890;27;20095;-59
2022/05/10 09:21:26;;;;;;;8.75;3.20;;;22.70;90.00;;;;;;5133003;27;20046;-60
2022/05/10 09:23:58;;;;;;;7.53;2.92;;;22.80;90.10;;;;;;5150676;27;20038;-60
2022/05/10 09:26:32;;;;;;;5.78;2.85;;;22.80;90.20;;;;;;5156440;27;20086;-61
2022/05/10 09:29:26;;;;;;;11.20;2.75;;;22.80;90.20;;;;;;5115210;27;20046;-66
2022/05/10 09:34:48;;;;;;;6.15;2.90;;;22.90;89.90;;;;;;5142388;27;20672;-61
2022/05/10 09:37:29;;;;;;;7.82;2.83;;;23.00;89.60;;;;;;5165849;27;20095;-61
2022/05/10 09:39:57;;;;;;;4.53;2.58;;;23.20;90.10;;;;;;5153232;27;20111;-61
2022/05/10 09:42:39;;;;;;;7.70;3.45;;;23.40;88.60;;;;;;5143563;27;20053;-61
2022/05/10 09:45:20;;;;;;;6.38;3.10;;;23.40;88.10;;;;;;5174505;27;20046;-60
2022/05/10 09:48:09;;;;;;;6.50;3.10;;;23.50;88.10;;;;;;5145941;27;20117;-61
2022/05/10 09:50:39;;;;;;;8.60;3.20;;;23.70;88.00;;;;;;5141335;27;20070;-62
2022/05/10 09:53:26;;;;;;;8.13;3.92;;;23.80;87.50;;;;;;5132782;27;20047;-62
2022/05/10 09:56:05;;;;;;;7.70;3.60;;;24.00;87.00;;;;;;5132721;27;20051;-60
2022/05/10 09:58:36;;;;;;;7.78;3.40;;;24.30;86.90;;;;;;5126283;27;20130;-61
2022/05/10 10:01:06;;;;;;;13.57;3.50;;;24.40;86.70;;;;;;5153855;27;20558;-63
2022/05/10 10:03:37;;;;;;;7.15;3.47;;;24.50;87.20;;;;;;5153589;27;20464;-61
2022/05/10 10:06:25;;;;;;;6.63;3.45;;;24.40;86.10;;;;;;5135249;27;20050;-65
2022/05/10 10:08:55;;;;;;;8.15;3.42;;;24.20;86.10;;;;;;5133952;27;20057;-61
2022/05/10 10:11:21;;;;;;;8.10;3.50;;;24.00;86.40;;;;;;5142651;27;20095;-60
2022/05/10 10:13:51;;;;;;;8.85;3.33;;;23.80;86.60;;;;;;5174271;27;20482;-61
2022/05/10 10:16:24;;;;;;;6.10;3.55;;;23.70;87.00;;;;;;5125235;27;20046;-60
2022/05/10 10:18:53;;;;;;;9.73;3.97;;;23.50;87.70;;;;;;5152825;27;20082;-61
2022/05/10 10:21:48;;;;;;;6.47;3.78;;;23.50;87.60;;;;;;5157474;27;20038;-62
2022/05/10 10:24:23;;;;;;;7.38;4.47;;;23.50;87.90;;;;;;5173637;27;20049;-60
2022/05/10 10:26:53;;;;;;;9.85;4.63;;;23.50;87.90;;;;;;5174223;27;20045;-61
2022/05/10 10:29:32;;;;;;;11.10;4.07;;;23.60;88.00;;;;;;5157047;27;20043;-61
2022/05/10 10:32:19;;;;;;;7.65;4.15;;;23.80;88.20;;;;;;5150097;27;20054;-60
2022/05/10 10:35:23;;;;;;;8.68;4.40;;;23.90;88.20;;;;;;5170041;27;20082;-61
2022/05/10 10:37:56;;;;;;;7.50;4.50;;;24.00;88.30;;;;;;5110088;27;20097;-62
2022/05/10 10:40:56;;;;;;;11.07;4.32;;;24.10;88.70;;;;;;5121989;27;20051;-61
2022/05/10 10:43:28;;;;;;;7.28;4.30;;;24.10;88.20;;;;;;5113200;27;20182;-61
2022/05/10 10:46:28;;;;;;;7.28;4.63;;;24.10;88.70;;;;;;5132199;27;20490;-60
2022/05/10 10:48:56;;;;;;;7.57;4.53;;;24.20;88.50;;;;;;5132021;27;20484;-61
2022/05/10 10:51:29;;;;;;;10.88;5.53;;;24.20;88.80;;;;;;5163126;27;20046;-59
2022/05/10 10:53:55;;;;;;;8.00;5.00;;;24.20;88.10;;;;;;5153187;27;20051;-61
2022/05/10 10:56:47;;;;;;;11.98;5.10;;;24.20;88.40;;;;;;5131333;27;20047;-61
2022/05/10 10:59:54;;;;;;;10.57;4.90;;;24.10;88.80;;;;;;5131443;27;20503;-64
2022/05/10 11:02:40;;;;;;;8.70;5.18;;;24.10;89.10;;;;;;5150431;27;20043;-60
2022/05/10 11:05:23;;;;;;;11.93;5.80;;;24.00;89.00;;;;;;5152109;27;20513;-61
2022/05/10 11:08:06;;;;;;;8.55;4.72;;;23.90;89.10;;;;;;5134085;27;20046;-61
2022/05/10 11:10:50;;;;;;;9.25;5.40;;;23.80;90.20;;;;;;5165316;27;20329;-60
2022/05/10 11:13:25;;;;;;;11.85;4.95;;;23.70;91.40;;;;;;5151805;27;20047;-61
2022/05/10 11:15:59;;;;;;;9.32;5.88;;;23.60;91.80;;;;;;5152415;27;20050;-61
2022/05/10 11:18:34;;;;;;;9.88;4.38;;;23.40;90.90;;;;;;5132285;27;20046;-61
2022/05/10 11:21:20;;;;;;;12.85;4.25;;;23.30;90.70;;;;;;5159847;27;20491;-60
2022/05/10 11:24:13;;;;;;;8.77;3.50;;;23.20;89.50;;;;;;5127662;27;20061;-62
2022/05/10 11:27:08;;;;;;;9.88;3.45;;;23.30;89.30;;;;;;5121802;27;20047;-61
2022/05/10 11:29:52;;;;;;;9.35;3.35;;;23.30;87.70;;;;;;5041776;27;20143;-61
2022/05/10 11:32:37;;;;;;;6.93;3.00;;;23.30;88.10;;;;;;5149968;27;20173;-63
2022/05/10 11:35:31;;;;;;;6.68;2.90;;;23.40;87.00;;;;;;5117424;27;20047;-61
2022/05/10 11:38:11;;;;;;;6.57;3.47;;;23.50;87.20;;;;;;5131132;27;20173;-62
2022/05/10 11:40:55;;;;;;;8.77;2.90;;;23.60;87.10;;;;;;5170417;27;20580;-61
2022/05/10 11:43:44;;;;;;;8.40;3.20;;;23.70;87.80;;;;;;5128715;27;20043;-62
2022/05/10 11:46:40;;;;;;;8.27;3.70;;;23.70;86.80;;;;;;5112897;27;20051;-61
2022/05/10 11:49:15;;;;;;;8.25;3.83;;;23.70;86.50;;;;;;5142764;27;20046;-61
2022/05/10 11:51:57;;;;;;;10.55;4.35;;;23.80;87.10;;;;;;5116939;27;20082;-61
2022/05/10 11:54:34;;;;;;;7.53;4.15;;;23.70;86.90;;;;;;5132326;27;20076;-61
2022/05/10 11:57:01;;;;;;;8.55;3.95;;;23.70;87.20;;;;;;5142778;27;20046;-60
2022/05/10 11:59:31;;;;;;;14.02;4.70;;;23.70;88.00;;;;;;5118156;27;20129;-60
2022/05/10 12:01:57;;;;;;;8.38;4.13;;;23.70;87.60;;;;;;5131891;27;20541;-61
2022/05/10 12:04:35;;;;;;;10.80;4.95;;;23.60;88.10;;;;;;5133166;27;20042;-61
2022/05/10 12:07:34;;;;;;;8.98;4.80;;;23.60;88.90;;;;;;5140520;27;20418;-60
2022/05/10 12:10:20;;;;;;;9.85;5.00;;;23.80;89.20;;;;;;5085495;28;20090;-60
2022/05/10 12:12:46;;;;;;;10.55;5.40;;;23.90;88.70;;;;;;5130659;28;20104;-60
2022/05/10 12:21:24;;;;;;;12.93;6.63;;;24.00;88.40;;;;;;5128081;27;20142;-60
2022/05/10 12:24:20;;;;;;;10.68;6.60;;;24.00;88.80;;;;;;5132924;27;20050;-61
2022/05/10 12:26:47;;;;;;;12.68;6.43;;;24.10;88.80;;;;;;5150817;27;20043;-60
2022/05/10 12:29:38;;;;;;;12.23;6.32;;;24.10;89.50;;;;;;5128722;27;20059;-60
2022/05/10 12:32:38;;;;;;;13.32;5.40;;;24.10;89.80;;;;;;5133951;27;20047;-60
2022/05/10 12:35:30;;;;;;;10.57;5.75;;;24.10;90.00;;;;;;5153114;27;20042;-62
2022/05/10 12:37:59;;;;;;;10.25;5.05;;;24.10;89.70;;;;;;5127156;27;20054;-60
2022/05/10 12:40:34;;;;;;;18.40;5.15;;;24.10;89.00;;;;;;5154214;27;20085;-65
2022/05/10 12:43:16;;;;;;;9.85;4.07;;;23.90;88.50;;;;;;5119893;27;20047;-60
2022/05/10 12:46:17;;;;;;;9.68;4.63;;;24.00;89.10;;;;;;5151775;27;20047;-62
2022/05/10 12:49:20;;;;;;;9.57;4.40;;;23.90;88.90;;;;;;5154632;27;20121;-61
2022/05/10 12:52:13;;;;;;;9.30;4.30;;;23.80;88.40;;;;;;5135354;27;20616;-61
2022/05/10 12:54:42;;;;;;;10.05;3.70;;;23.60;88.70;;;;;;5154153;27;20579;-61
2022/05/10 12:57:20;;;;;;;7.35;3.08;;;23.40;87.80;;;;;;5136330;27;20046;-63
2022/05/10 13:00:12;;;;;;;5.22;2.70;;;23.40;85.80;;;;;;5156463;27;20042;-60
2022/05/10 13:02:42;;;;;;;6.80;2.60;;;23.30;85.00;;;;;;5132878;27;20117;-62
2022/05/10 13:05:18;;;;;;;11.13;2.72;;;23.20;84.50;;;;;;5154864;27;20484;-61
2022/05/10 13:07:49;;;;;;;11.05;2.88;;;23.20;84.60;;;;;;5163685;27;20057;-63
2022/05/10 13:10:21;;;;;;;12.77;2.80;;;23.30;83.50;;;;;;5156461;27;20046;-62
2022/05/10 13:13:00;;;;;;;13.98;3.05;;;23.30;82.90;;;;;;5154119;27;20082;-61
2022/05/10 13:15:26;;;;;;;9.23;2.60;;;23.30;81.90;;;;;;5148142;27;20031;-62
2022/05/10 13:17:54;;;;;;;9.50;2.10;;;23.20;79.00;;;;;;5130961;27;20061;-61
2022/05/10 13:20:23;;;;;;;4.70;2.20;;;23.20;78.70;;;;;;5169161;27;20041;-62
2022/05/10 13:22:58;;;;;;;9.95;2.30;;;23.10;78.50;;;;;;5153970;27;20138;-62
2022/05/10 13:25:29;;;;;;;7.75;2.10;;;23.10;79.10;;;;;;5135841;27;20047;-63